Time;durP1;ratioP1;P1;durP2;ratioP2;P2;SDS_P1;SDS_P2;PMS_P1;PMS_P2;Temp;Humidity;BMP_temperature;BMP_pressure;BME280_temperature;BME280_humidity;BME280_pressure;Samples;Min_cycle;Max_cycle;Signal;HPM_P1;HPM_P2
2022/03/07 00:01:49;;;;;;;0.70;0.40;;;0.00;99.90;;;;;;4922015;29;20519;-71
2022/03/07 00:04:16;;;;;;;0.70;0.50;;;0.00;99.90;;;;;;4935559;29;20224;-71
2022/03/07 00:06:43;;;;;;;0.70;0.40;;;0.10;99.90;;;;;;4919365;29;20688;-72
2022/03/07 00:09:08;;;;;;;0.70;0.40;;;0.20;99.90;;;;;;4918326;29;20436;-71
2022/03/07 00:11:35;;;;;;;0.70;0.40;;;0.20;99.90;;;;;;4919736;29;20479;-71
2022/03/07 00:14:01;;;;;;;0.70;0.50;;;0.20;99.90;;;;;;4920883;29;20188;-72
2022/03/07 00:16:27;;;;;;;0.80;0.60;;;0.20;99.90;;;;;;4933781;29;20565;-72
2022/03/07 00:18:53;;;;;;;0.70;0.40;;;0.30;99.90;;;;;;4918165;29;20888;-71
2022/03/07 00:21:20;;;;;;;0.70;0.50;;;0.30;99.90;;;;;;4918477;29;20245;-72
2022/03/07 00:23:45;;;;;;;0.80;0.60;;;0.30;99.90;;;;;;4918564;29;20207;-71
2022/03/07 00:26:11;;;;;;;0.70;0.40;;;0.30;99.90;;;;;;4919406;29;20419;-72
2022/03/07 00:28:37;;;;;;;0.70;0.40;;;0.40;99.90;;;;;;4919239;29;20183;-72
2022/03/07 00:31:03;;;;;;;0.70;0.40;;;0.40;99.90;;;;;;4920211;29;20234;-71
2022/03/07 00:33:29;;;;;;;0.70;0.50;;;0.40;99.90;;;;;;4920157;29;20276;-71
2022/03/07 00:35:54;;;;;;;0.70;0.47;;;0.50;99.90;;;;;;4920586;29;20903;-72
2022/03/07 00:38:20;;;;;;;0.70;0.50;;;0.50;99.90;;;;;;4918963;29;20181;-71
2022/03/07 00:40:46;;;;;;;0.70;0.50;;;0.50;99.90;;;;;;4933299;29;20197;-72
2022/03/07 00:43:11;;;;;;;0.70;0.50;;;0.60;99.90;;;;;;4917348;29;20199;-71
2022/03/07 00:45:37;;;;;;;0.80;0.77;;;0.60;99.90;;;;;;4917660;29;20184;-71
2022/03/07 00:48:03;;;;;;;1.27;0.80;;;0.60;99.90;;;;;;4918675;29;20205;-72
2022/03/07 00:50:28;;;;;;;0.70;0.50;;;0.60;99.90;;;;;;4918348;29;20259;-72
2022/03/07 00:52:54;;;;;;;0.70;0.50;;;0.70;99.90;;;;;;4918184;29;20490;-72
2022/03/07 00:55:19;;;;;;;0.70;0.40;;;0.70;99.90;;;;;;4932450;29;20582;-72
2022/03/07 00:57:45;;;;;;;0.70;0.43;;;0.80;99.90;;;;;;4918327;29;20181;-72
2022/03/07 01:00:11;;;;;;;0.70;0.40;;;0.80;99.90;;;;;;4917996;29;20637;-72
2022/03/07 01:02:38;;;;;;;0.70;0.40;;;0.90;99.90;;;;;;4919755;29;20227;-71
2022/03/07 01:05:05;;;;;;;0.70;0.50;;;0.90;99.90;;;;;;4933150;28;20416;-72
2022/03/07 01:07:30;;;;;;;0.70;0.50;;;0.90;99.90;;;;;;4919757;29;20482;-71
2022/03/07 01:09:56;;;;;;;0.70;0.50;;;1.00;99.90;;;;;;4917265;29;20912;-71
2022/03/07 01:12:21;;;;;;;0.70;0.50;;;1.00;99.90;;;;;;4916794;29;20192;-71
2022/03/07 01:14:47;;;;;;;0.70;0.40;;;1.00;99.90;;;;;;4931561;28;20701;-72
2022/03/07 01:17:13;;;;;;;0.70;0.60;;;1.10;99.90;;;;;;4932060;28;20227;-72
2022/03/07 01:19:38;;;;;;;1.80;1.03;;;1.10;99.90;;;;;;4933380;28;20555;-72
2022/03/07 01:22:04;;;;;;;0.70;0.50;;;1.10;99.90;;;;;;4929461;29;20274;-72
2022/03/07 01:24:30;;;;;;;0.70;0.40;;;1.10;99.90;;;;;;4899056;29;20291;-72
2022/03/07 01:26:56;;;;;;;1.17;1.07;;;1.10;99.90;;;;;;4898808;29;20177;-71
2022/03/07 01:29:22;;;;;;;0.70;0.53;;;1.00;99.90;;;;;;4898126;29;20408;-71
2022/03/07 01:31:48;;;;;;;0.70;0.50;;;1.00;99.90;;;;;;4905912;29;20423;-71
2022/03/07 01:34:13;;;;;;;0.70;0.50;;;1.00;99.90;;;;;;4917588;29;20185;-72
2022/03/07 01:36:39;;;;;;;0.70;0.40;;;0.90;99.90;;;;;;4918079;29;20455;-71
2022/03/07 01:39:05;;;;;;;1.33;1.23;;;0.90;99.90;;;;;;4918576;29;20178;-71
2022/03/07 01:41:32;;;;;;;1.67;1.57;;;0.80;99.90;;;;;;4919120;29;20976;-72
2022/03/07 01:43:57;;;;;;;0.70;0.40;;;0.80;99.90;;;;;;4916386;29;20242;-72
2022/03/07 01:46:23;;;;;;;0.80;0.70;;;0.80;99.90;;;;;;4918038;29;20459;-72
2022/03/07 01:48:49;;;;;;;0.70;0.40;;;0.70;99.90;;;;;;4917668;29;20195;-72
2022/03/07 01:51:16;;;;;;;0.70;0.50;;;0.70;99.90;;;;;;4917239;29;20174;-72
2022/03/07 01:53:42;;;;;;;1.20;1.00;;;0.70;99.90;;;;;;4916352;29;20199;-71
2022/03/07 01:56:08;;;;;;;0.70;0.40;;;0.70;99.90;;;;;;4916258;29;20423;-71
2022/03/07 01:58:35;;;;;;;0.70;0.50;;;0.60;99.90;;;;;;4918317;29;20418;-71
2022/03/07 02:01:00;;;;;;;1.00;1.00;;;0.60;99.90;;;;;;4918173;29;20180;-72
2022/03/07 02:03:26;;;;;;;0.80;0.67;;;0.60;99.90;;;;;;4916864;29;20825;-72
2022/03/07 02:05:53;;;;;;;0.70;0.50;;;0.60;99.90;;;;;;4916824;29;20207;-72
2022/03/07 02:08:19;;;;;;;1.10;1.00;;;0.60;99.90;;;;;;4918351;29;20187;-72
2022/03/07 02:10:45;;;;;;;0.70;0.40;;;0.60;99.90;;;;;;4916364;29;20928;-72
2022/03/07 02:13:15;;;;;;;0.70;0.67;;;0.60;99.90;;;;;;4916750;29;20432;-71
2022/03/07 02:15:41;;;;;;;0.70;0.50;;;0.60;99.90;;;;;;4916995;29;20305;-70
2022/03/07 02:18:06;;;;;;;0.70;0.40;;;0.60;99.90;;;;;;4916930;29;20465;-71
2022/03/07 02:20:32;;;;;;;0.70;0.50;;;0.60;99.90;;;;;;4919223;29;20190;-71
2022/03/07 02:22:58;;;;;;;0.70;0.40;;;0.60;99.90;;;;;;4917897;29;20740;-71
2022/03/07 02:25:24;;;;;;;0.70;0.40;;;0.50;99.90;;;;;;4917022;29;20515;-71
2022/03/07 02:27:49;;;;;;;0.70;0.50;;;0.40;99.90;;;;;;4917201;29;20935;-71
2022/03/07 02:30:15;;;;;;;0.70;0.60;;;0.40;99.90;;;;;;4933951;28;20170;-71
2022/03/07 02:32:42;;;;;;;0.70;0.50;;;0.30;99.90;;;;;;4916001;29;20812;-71
2022/03/07 02:35:08;;;;;;;0.70;0.50;;;0.20;99.90;;;;;;4915515;29;20176;-71
2022/03/07 02:37:34;;;;;;;0.70;0.40;;;0.10;99.90;;;;;;4918345;29;20930;-70
2022/03/07 02:39:59;;;;;;;0.70;0.60;;;0.10;99.90;;;;;;4933814;29;20424;-71
2022/03/07 02:42:25;;;;;;;0.80;0.80;;;0.00;99.90;;;;;;4918755;29;20211;-70
2022/03/07 02:44:50;;;;;;;0.70;0.40;;;-0.10;99.90;;;;;;4919025;29;20295;-71
2022/03/07 02:47:16;;;;;;;0.70;0.40;;;-0.20;99.90;;;;;;4918958;29;20168;-71
2022/03/07 02:49:42;;;;;;;0.70;0.40;;;-0.20;99.90;;;;;;4918222;29;20171;-71
2022/03/07 02:52:08;;;;;;;0.70;0.40;;;-0.30;99.90;;;;;;4933448;29;20175;-71
2022/03/07 02:54:34;;;;;;;0.70;0.40;;;-0.40;99.90;;;;;;4918667;29;20416;-71
2022/03/07 02:57:00;;;;;;;0.70;0.43;;;-0.50;99.90;;;;;;4917664;29;20412;-71
2022/03/07 02:59:25;;;;;;;0.70;0.40;;;-0.50;99.90;;;;;;4933583;29;20447;-71
2022/03/07 03:01:51;;;;;;;0.70;0.50;;;-0.60;99.90;;;;;;4917432;29;20175;-71
2022/03/07 03:04:17;;;;;;;2.40;1.03;;;-0.60;99.90;;;;;;4920758;29;20290;-71
2022/03/07 03:06:42;;;;;;;0.70;0.40;;;-0.70;99.90;;;;;;4937110;29;20222;-71
2022/03/07 03:09:09;;;;;;;0.70;0.40;;;-0.80;99.90;;;;;;4922433;29;20175;-71
2022/03/07 03:11:35;;;;;;;0.70;0.40;;;-0.90;99.90;;;;;;4921636;29;20266;-71
2022/03/07 03:14:00;;;;;;;0.70;0.40;;;-0.90;99.90;;;;;;4920988;29;20660;-71
2022/03/07 03:16:26;;;;;;;0.70;0.50;;;-1.00;99.90;;;;;;4923100;29;20263;-71
2022/03/07 03:18:51;;;;;;;0.70;0.50;;;-1.00;99.90;;;;;;4921753;29;20179;-70
2022/03/07 03:21:21;;;;;;;0.70;0.50;;;-1.10;99.90;;;;;;4922291;29;20177;-71
2022/03/07 03:23:49;;;;;;;0.70;0.43;;;-1.10;99.90;;;;;;4935904;29;20215;-70
2022/03/07 03:26:15;;;;;;;0.70;0.43;;;-1.20;99.90;;;;;;4922058;29;20408;-71
2022/03/07 03:28:41;;;;;;;0.70;0.40;;;-1.30;99.90;;;;;;4921351;29;20463;-71
2022/03/07 03:31:08;;;;;;;0.70;0.50;;;-1.30;99.90;;;;;;4921439;29;20176;-70
2022/03/07 03:33:35;;;;;;;0.70;0.50;;;-1.40;99.90;;;;;;4920344;29;20528;-70
2022/03/07 03:36:01;;;;;;;0.70;0.50;;;-1.40;99.90;;;;;;4921966;29;20936;-71
2022/03/07 03:38:27;;;;;;;0.70;0.50;;;-1.40;99.90;;;;;;4936649;28;20415;-70
2022/03/07 03:40:52;;;;;;;0.70;0.40;;;-1.30;99.90;;;;;;4936603;28;21012;-71
2022/03/07 03:43:18;;;;;;;0.70;0.40;;;-1.30;99.90;;;;;;4920903;29;20230;-71
2022/03/07 03:45:43;;;;;;;0.70;0.50;;;-1.30;99.90;;;;;;4936157;29;20180;-71
2022/03/07 03:48:09;;;;;;;0.70;0.53;;;-1.20;99.90;;;;;;4921556;29;20179;-70
2022/03/07 03:50:35;;;;;;;0.70;0.40;;;-1.20;99.90;;;;;;4920455;29;20311;-71
2022/03/07 03:53:00;;;;;;;0.70;0.40;;;-1.20;99.90;;;;;;4921174;29;20198;-70
2022/03/07 03:55:26;;;;;;;0.70;0.40;;;-1.10;99.90;;;;;;4921965;29;20630;-70
2022/03/07 03:57:51;;;;;;;1.10;0.60;;;-1.10;99.90;;;;;;4935701;28;20235;-71
2022/03/07 04:00:18;;;;;;;0.70;0.50;;;-1.10;99.90;;;;;;4921741;29;20247;-71
2022/03/07 04:02:44;;;;;;;0.90;0.60;;;-1.10;99.90;;;;;;4921327;29;20231;-71
2022/03/07 04:05:11;;;;;;;0.70;0.40;;;-1.10;99.90;;;;;;4921990;29;20412;-70
2022/03/07 04:07:38;;;;;;;0.70;0.40;;;-1.10;99.90;;;;;;4920973;29;20427;-71
2022/03/07 04:10:04;;;;;;;0.70;0.50;;;-1.00;99.90;;;;;;4936689;28;20408;-71
2022/03/07 04:12:30;;;;;;;0.70;0.47;;;-1.00;99.90;;;;;;4921236;29;20463;-71
2022/03/07 04:14:55;;;;;;;0.70;0.40;;;-1.00;99.90;;;;;;4919797;29;20774;-71
2022/03/07 04:17:21;;;;;;;0.70;0.40;;;-1.00;99.90;;;;;;4921117;29;20199;-70
2022/03/07 04:19:46;;;;;;;0.80;0.70;;;-1.00;99.90;;;;;;4920714;29;20168;-71
2022/03/07 04:22:12;;;;;;;0.70;0.50;;;-1.00;99.90;;;;;;4921060;29;20171;-70
2022/03/07 04:24:39;;;;;;;0.70;0.60;;;-1.00;99.90;;;;;;4935356;28;20203;-71
2022/03/07 04:27:04;;;;;;;0.70;0.40;;;-1.10;99.90;;;;;;4919993;29;20182;-71
2022/03/07 04:29:30;;;;;;;0.70;0.40;;;-1.10;99.90;;;;;;4920960;29;20487;-71
2022/03/07 04:31:56;;;;;;;0.70;0.40;;;-1.10;99.90;;;;;;4920812;29;20180;-71
2022/03/07 04:34:22;;;;;;;0.70;0.40;;;-1.10;99.90;;;;;;4920790;29;20278;-72
2022/03/07 04:36:47;;;;;;;0.70;0.40;;;-1.10;99.90;;;;;;4920514;29;20917;-71
2022/03/07 04:39:13;;;;;;;0.70;0.50;;;-1.10;99.90;;;;;;4920697;29;20175;-70
2022/03/07 04:41:39;;;;;;;0.70;0.40;;;-1.10;99.90;;;;;;4920772;29;20757;-71
2022/03/07 04:44:05;;;;;;;0.70;0.40;;;-1.10;99.90;;;;;;4920041;29;20275;-70
2022/03/07 04:46:31;;;;;;;0.70;0.50;;;-1.10;99.90;;;;;;4919275;29;20419;-70
2022/03/07 04:48:57;;;;;;;0.70;0.50;;;-1.10;99.90;;;;;;4920704;29;20419;-70
2022/03/07 04:51:23;;;;;;;0.70;0.47;;;-1.20;99.90;;;;;;4920205;29;20433;-71
2022/03/07 04:53:48;;;;;;;0.70;0.40;;;-1.20;99.90;;;;;;4935016;28;20204;-70
2022/03/07 04:56:14;;;;;;;0.70;0.50;;;-1.30;99.90;;;;;;4919850;29;20243;-71
2022/03/07 04:58:40;;;;;;;0.70;0.40;;;-1.20;99.90;;;;;;4920350;29;20175;-71
2022/03/07 05:01:05;;;;;;;0.70;0.47;;;-1.30;99.90;;;;;;4920475;29;20263;-70
2022/03/07 05:03:31;;;;;;;1.17;1.07;;;-1.30;99.90;;;;;;4934001;28;20239;-71
2022/03/07 05:05:57;;;;;;;0.70;0.50;;;-1.30;99.90;;;;;;4920219;29;20219;-71
2022/03/07 05:08:22;;;;;;;0.70;0.50;;;-1.30;99.90;;;;;;4934911;29;20223;-71
2022/03/07 05:10:48;;;;;;;3.27;3.07;;;-1.40;99.90;;;;;;4934661;28;20179;-71
2022/03/07 05:13:14;;;;;;;0.70;0.50;;;-1.40;99.90;;;;;;4934063;28;20199;-70
2022/03/07 05:15:40;;;;;;;0.70;0.40;;;-1.50;99.90;;;;;;4919343;29;20928;-71
2022/03/07 05:18:06;;;;;;;0.70;0.50;;;-1.50;99.90;;;;;;4920509;29;20419;-70
2022/03/07 05:20:31;;;;;;;0.70;0.50;;;-1.50;99.90;;;;;;4933979;28;20427;-71
2022/03/07 05:22:57;;;;;;;1.70;1.60;;;-1.60;99.90;;;;;;4917932;29;20298;-70
2022/03/07 05:25:23;;;;;;;0.70;0.50;;;-1.60;99.90;;;;;;4918642;29;20188;-70
2022/03/07 05:27:49;;;;;;;0.70;0.40;;;-1.60;99.90;;;;;;4918482;29;20318;-70
2022/03/07 05:30:18;;;;;;;0.70;0.40;;;-1.70;99.90;;;;;;4918845;29;20434;-71
2022/03/07 05:32:45;;;;;;;0.70;0.50;;;-1.70;99.90;;;;;;4918468;29;20446;-70
2022/03/07 05:35:11;;;;;;;0.70;0.50;;;-1.70;99.90;;;;;;4918595;29;20495;-71
2022/03/07 05:37:38;;;;;;;0.70;0.40;;;-1.80;99.90;;;;;;4917394;28;20435;-70
2022/03/07 05:40:05;;;;;;;0.70;0.40;;;-1.80;99.90;;;;;;4917587;28;20419;-71
2022/03/07 05:42:30;;;;;;;0.70;0.40;;;-1.80;99.90;;;;;;4918564;29;20831;-70
2022/03/07 05:44:56;;;;;;;0.80;0.60;;;-1.80;99.90;;;;;;4918286;29;20459;-71
2022/03/07 05:47:22;;;;;;;1.57;0.90;;;-1.80;99.90;;;;;;4918823;29;20172;-71
2022/03/07 05:49:47;;;;;;;0.70;0.50;;;-1.80;99.90;;;;;;4918577;29;20254;-70
2022/03/07 05:52:13;;;;;;;0.70;0.40;;;-1.80;99.90;;;;;;4933694;28;20684;-71
2022/03/07 05:54:38;;;;;;;0.70;0.40;;;-1.80;99.90;;;;;;4918841;29;20171;-71
2022/03/07 05:57:04;;;;;;;0.70;0.50;;;-1.80;99.90;;;;;;4933193;28;20179;-71
2022/03/07 05:59:29;;;;;;;1.00;1.00;;;-1.80;99.90;;;;;;4933581;28;20176;-70
2022/03/07 06:01:55;;;;;;;0.70;0.40;;;-1.80;99.90;;;;;;4930529;28;20221;-70
2022/03/07 06:04:21;;;;;;;0.70;0.60;;;-1.80;99.90;;;;;;4899121;29;20297;-70
2022/03/07 06:06:46;;;;;;;0.70;0.40;;;-1.80;99.90;;;;;;4899924;29;20416;-71
2022/03/07 06:09:12;;;;;;;0.70;0.40;;;-1.80;99.90;;;;;;4898214;29;20184;-71
2022/03/07 06:11:37;;;;;;;1.60;1.50;;;-1.80;99.90;;;;;;4911879;29;20659;-71
2022/03/07 06:14:04;;;;;;;0.70;0.40;;;-1.80;99.90;;;;;;4918388;29;20320;-71
2022/03/07 06:16:29;;;;;;;0.70;0.40;;;-1.80;99.90;;;;;;4918979;29;20439;-71
2022/03/07 06:18:55;;;;;;;0.70;0.40;;;-1.80;99.90;;;;;;4918643;29;20737;-71
2022/03/07 06:21:21;;;;;;;0.70;0.40;;;-1.80;99.90;;;;;;4918813;29;20176;-72
2022/03/07 06:23:46;;;;;;;0.70;0.40;;;-1.70;99.90;;;;;;4932386;29;20204;-70
2022/03/07 06:26:12;;;;;;;0.70;0.40;;;-1.70;99.90;;;;;;4919139;29;20171;-70
2022/03/07 06:28:37;;;;;;;0.70;0.40;;;-1.70;99.90;;;;;;4919221;29;20160;-73
2022/03/07 06:31:03;;;;;;;0.70;0.50;;;-1.60;99.90;;;;;;4918548;29;20175;-71
2022/03/07 06:33:28;;;;;;;0.70;0.40;;;-1.60;99.90;;;;;;4917958;29;20563;-71
2022/03/07 06:35:54;;;;;;;0.70;0.50;;;-1.60;99.90;;;;;;4918259;29;20199;-71
2022/03/07 06:38:20;;;;;;;0.70;0.40;;;-1.50;99.90;;;;;;4918114;29;20188;-71
2022/03/07 06:40:46;;;;;;;0.70;0.40;;;-1.50;99.90;;;;;;4918765;29;20171;-70
2022/03/07 06:43:12;;;;;;;0.70;0.40;;;-1.40;99.90;;;;;;4917801;29;20215;-70
2022/03/07 06:45:38;;;;;;;0.70;0.50;;;-1.40;99.90;;;;;;4918574;29;20412;-71
2022/03/07 06:48:04;;;;;;;0.70;0.40;;;-1.30;99.90;;;;;;4918483;29;20423;-71
2022/03/07 06:50:29;;;;;;;0.70;0.40;;;-1.20;99.90;;;;;;4918748;29;20226;-71
2022/03/07 06:52:55;;;;;;;0.80;0.50;;;-1.10;99.90;;;;;;4917048;29;20199;-71
2022/03/07 06:55:21;;;;;;;0.70;0.50;;;-1.00;99.90;;;;;;4918152;29;20186;-70
2022/03/07 06:57:47;;;;;;;0.70;0.40;;;-0.90;99.90;;;;;;4918286;29;20413;-70
2022/03/07 07:00:15;;;;;;;0.70;0.40;;;-0.80;99.90;;;;;;4918244;29;20175;-71
2022/03/07 07:02:42;;;;;;;1.53;1.43;;;-0.70;99.90;;;;;;4916551;29;20247;-71
2022/03/07 07:05:08;;;;;;;0.70;0.40;;;-0.60;99.90;;;;;;4932346;28;20430;-71
2022/03/07 07:07:35;;;;;;;0.70;0.40;;;-0.50;99.90;;;;;;4918346;29;20436;-71
2022/03/07 07:10:01;;;;;;;0.70;0.40;;;-0.40;99.90;;;;;;4917103;29;20419;-70
2022/03/07 07:12:26;;;;;;;0.70;0.60;;;-0.30;99.90;;;;;;4917820;29;21052;-71
2022/03/07 07:14:52;;;;;;;0.70;0.47;;;-0.10;99.90;;;;;;4917843;29;20412;-71
2022/03/07 07:17:17;;;;;;;0.70;0.40;;;0.00;99.90;;;;;;4932761;29;20176;-71
2022/03/07 07:19:43;;;;;;;0.70;0.50;;;0.10;99.90;;;;;;4918076;29;20176;-70
2022/03/07 07:22:09;;;;;;;0.70;0.40;;;0.20;99.90;;;;;;4918228;29;20180;-71
2022/03/07 07:24:35;;;;;;;0.70;0.50;;;0.30;99.90;;;;;;4917687;29;20205;-71
2022/03/07 07:27:00;;;;;;;0.70;0.50;;;0.40;99.90;;;;;;4917763;29;20173;-71
2022/03/07 07:29:26;;;;;;;0.70;0.50;;;0.50;99.90;;;;;;4917101;29;20183;-71
2022/03/07 07:31:52;;;;;;;0.70;0.40;;;0.70;99.90;;;;;;4918070;29;20207;-71
2022/03/07 07:34:18;;;;;;;0.70;0.50;;;0.80;99.90;;;;;;4932659;29;20222;-71
2022/03/07 07:36:44;;;;;;;0.80;0.60;;;1.00;99.90;;;;;;4933268;29;20185;-70
2022/03/07 07:39:10;;;;;;;0.70;0.50;;;1.30;99.90;;;;;;4918240;29;20789;-71
2022/03/07 07:41:36;;;;;;;0.70;0.60;;;1.60;99.90;;;;;;4917955;29;20189;-71
2022/03/07 07:44:02;;;;;;;0.70;0.50;;;1.90;99.90;;;;;;4917154;29;20557;-71
2022/03/07 07:46:28;;;;;;;0.70;0.50;;;2.40;99.90;;;;;;4897956;29;20183;-71
2022/03/07 07:48:53;;;;;;;0.97;0.87;;;2.80;99.90;;;;;;4899482;29;20502;-71
2022/03/07 07:51:19;;;;;;;0.83;0.83;;;3.30;99.90;;;;;;4918209;29;20199;-72
2022/03/07 07:53:45;;;;;;;0.80;0.80;;;4.00;99.90;;;;;;4903268;29;20192;-71
2022/03/07 07:56:11;;;;;;;0.70;0.50;;;4.90;99.90;;;;;;4917214;29;20183;-72
2022/03/07 07:58:37;;;;;;;1.20;0.70;;;5.80;93.60;;;;;;4920995;29;20267;-72
2022/03/07 08:01:03;;;;;;;0.80;0.70;;;6.90;87.10;;;;;;4922559;29;20203;-71
2022/03/07 08:03:29;;;;;;;0.80;0.57;;;7.90;81.40;;;;;;4920481;29;20581;-71
2022/03/07 08:05:55;;;;;;;0.80;0.70;;;8.80;74.60;;;;;;4936309;28;20412;-72
2022/03/07 08:08:21;;;;;;;1.43;1.17;;;9.80;70.20;;;;;;4921854;29;20215;-72
2022/03/07 08:10:46;;;;;;;0.80;0.70;;;10.50;60.00;;;;;;4936094;29;20747;-72
2022/03/07 08:13:12;;;;;;;1.23;1.10;;;11.20;54.70;;;;;;4919967;29;20661;-72
2022/03/07 08:15:40;;;;;;;1.57;1.47;;;11.60;52.00;;;;;;4921194;29;20259;-72
2022/03/07 08:18:06;;;;;;;0.80;0.67;;;12.10;51.50;;;;;;4919453;29;20179;-72
2022/03/07 08:20:31;;;;;;;0.80;0.80;;;12.80;50.80;;;;;;4920563;29;20423;-72
2022/03/07 08:22:57;;;;;;;2.13;1.47;;;13.50;47.80;;;;;;4920196;29;20901;-72
2022/03/07 08:25:23;;;;;;;2.40;2.20;;;14.10;44.70;;;;;;4920585;29;20168;-72
2022/03/07 08:27:49;;;;;;;2.00;1.13;;;14.70;45.30;;;;;;4920430;29;20822;-72
2022/03/07 08:30:16;;;;;;;0.80;0.80;;;15.50;43.60;;;;;;4919380;29;21144;-73
2022/03/07 08:32:42;;;;;;;1.87;1.77;;;16.30;42.40;;;;;;4920298;29;20519;-73
2022/03/07 08:35:10;;;;;;;1.73;1.30;;;17.00;40.40;;;;;;4919795;29;20432;-72
2022/03/07 08:37:37;;;;;;;0.90;0.80;;;17.60;37.70;;;;;;4920422;29;20416;-73
2022/03/07 08:40:05;;;;;;;1.47;0.87;;;18.00;37.90;;;;;;4919588;29;20914;-72
2022/03/07 08:42:30;;;;;;;1.00;0.70;;;18.70;38.30;;;;;;4933797;28;20447;-72
2022/03/07 08:44:56;;;;;;;0.80;0.60;;;19.40;36.80;;;;;;4917482;29;20893;-72
2022/03/07 08:47:21;;;;;;;1.17;1.07;;;19.90;34.30;;;;;;4917843;29;20206;-72
2022/03/07 08:49:48;;;;;;;2.40;1.33;;;20.30;33.60;;;;;;4919783;29;20171;-73
2022/03/07 08:52:17;;;;;;;2.40;1.37;;;20.40;31.90;;;;;;4919325;29;20239;-73
2022/03/07 08:54:43;;;;;;;1.00;0.80;;;20.50;32.00;;;;;;4919685;29;20559;-73
2022/03/07 08:57:09;;;;;;;1.33;1.13;;;20.80;32.10;;;;;;4919875;29;20419;-72
2022/03/07 08:59:35;;;;;;;2.27;1.50;;;21.20;32.40;;;;;;4920047;29;20412;-73
2022/03/07 09:02:01;;;;;;;2.20;1.47;;;21.70;31.60;;;;;;4933029;29;20418;-72
2022/03/07 09:04:26;;;;;;;1.60;1.30;;;22.10;30.80;;;;;;4916881;29;20591;-72
2022/03/07 09:06:52;;;;;;;1.10;0.93;;;22.70;30.20;;;;;;4917380;29;20172;-73
2022/03/07 09:09:18;;;;;;;1.50;1.27;;;22.90;29.50;;;;;;4933093;28;20214;-73
2022/03/07 09:11:43;;;;;;;1.63;1.40;;;23.10;29.60;;;;;;4919702;29;20489;-73
2022/03/07 09:14:09;;;;;;;0.90;0.80;;;23.30;29.30;;;;;;4917995;29;20254;-73
2022/03/07 09:16:35;;;;;;;1.20;0.87;;;23.70;29.40;;;;;;4919337;29;20549;-71
2022/03/07 09:19:00;;;;;;;1.73;1.23;;;23.90;28.70;;;;;;4919980;29;20626;-71
2022/03/07 09:21:26;;;;;;;1.20;0.80;;;23.90;28.00;;;;;;4919618;29;20176;-72
2022/03/07 09:23:51;;;;;;;1.10;1.00;;;23.90;28.10;;;;;;4919365;29;20199;-72
2022/03/07 09:26:17;;;;;;;2.63;1.53;;;24.10;27.80;;;;;;4918346;29;20179;-71
2022/03/07 09:28:43;;;;;;;1.00;0.77;;;24.30;28.00;;;;;;4916975;29;20175;-71
2022/03/07 09:31:09;;;;;;;1.00;0.80;;;24.70;27.90;;;;;;4916918;29;20282;-72
2022/03/07 09:33:36;;;;;;;2.40;2.03;;;24.90;27.80;;;;;;4916555;29;20274;-72
2022/03/07 09:36:03;;;;;;;1.23;1.10;;;25.30;27.40;;;;;;4916691;29;20420;-71
2022/03/07 09:38:29;;;;;;;1.17;1.07;;;25.60;27.60;;;;;;4915578;29;20925;-72
2022/03/07 09:40:56;;;;;;;1.60;1.10;;;26.10;27.50;;;;;;4916809;29;20488;-71
2022/03/07 09:43:22;;;;;;;1.20;0.83;;;26.30;27.00;;;;;;4916294;29;20800;-71
2022/03/07 09:45:48;;;;;;;1.40;1.30;;;26.50;26.30;;;;;;4918767;29;20460;-72
2022/03/07 09:48:14;;;;;;;1.10;0.90;;;26.60;26.50;;;;;;4919112;29;20428;-72
2022/03/07 09:50:41;;;;;;;1.50;1.40;;;26.50;26.10;;;;;;4917840;29;20982;-72
2022/03/07 09:53:08;;;;;;;1.03;0.93;;;26.70;26.20;;;;;;4917083;29;20530;-71
2022/03/07 09:55:34;;;;;;;7.07;2.90;;;26.80;26.30;;;;;;4916553;29;20977;-71
2022/03/07 09:58:00;;;;;;;1.13;0.90;;;27.10;26.10;;;;;;4916420;29;20427;-72
2022/03/07 10:00:25;;;;;;;1.70;1.40;;;27.40;26.10;;;;;;4916233;29;20427;-71
2022/03/07 10:02:56;;;;;;;1.23;1.13;;;27.70;25.80;;;;;;4916333;29;20203;-72
2022/03/07 10:05:25;;;;;;;1.43;1.10;;;28.00;25.80;;;;;;4917619;29;20180;-72
2022/03/07 10:07:50;;;;;;;1.13;1.03;;;28.20;25.50;;;;;;4918875;29;20447;-72
2022/03/07 10:10:16;;;;;;;2.80;1.20;;;28.70;25.90;;;;;;4917913;29;20428;-72
2022/03/07 10:12:50;;;;;;;1.40;1.30;;;28.90;24.90;;;;;;4918395;29;20670;-72
2022/03/07 10:15:18;;;;;;;1.30;1.10;;;29.10;25.90;;;;;;4918254;29;20162;-72
2022/03/07 10:17:50;;;;;;;1.53;1.13;;;29.60;25.10;;;;;;4918846;29;20463;-72
2022/03/07 10:20:19;;;;;;;1.37;1.17;;;29.90;24.70;;;;;;4918665;29;20472;-72
2022/03/07 10:22:50;;;;;;;1.20;1.10;;;30.00;24.40;;;;;;4916953;29;20944;-72
2022/03/07 10:25:20;;;;;;;1.80;1.50;;;30.00;24.50;;;;;;4917180;29;20464;-72
2022/03/07 10:27:48;;;;;;;1.23;1.00;;;30.20;24.40;;;;;;4916448;29;20450;-72
2022/03/07 10:30:23;;;;;;;1.10;1.00;;;30.20;24.10;;;;;;4931089;28;20491;-72
2022/03/07 10:33:09;;;;;;;2.60;1.13;;;30.20;24.70;;;;;;4916381;29;20557;-72
2022/03/07 10:35:43;;;;;;;2.00;1.90;;;30.60;24.50;;;;;;4916329;29;20804;-72
2022/03/07 10:38:12;;;;;;;1.13;1.03;;;30.40;23.50;;;;;;4897527;29;20416;-72
2022/03/07 10:40:40;;;;;;;1.17;1.07;;;30.40;24.00;;;;;;4897634;29;20422;-72
2022/03/07 10:43:07;;;;;;;1.00;0.80;;;30.20;23.60;;;;;;4899142;29;20440;-72
2022/03/07 10:45:47;;;;;;;1.57;1.40;;;30.50;23.90;;;;;;4898277;29;20446;-72
2022/03/07 10:48:13;;;;;;;1.60;1.23;;;30.80;23.60;;;;;;4903274;29;20443;-72
2022/03/07 10:50:42;;;;;;;1.00;0.83;;;31.00;23.30;;;;;;4916176;29;20432;-72
2022/03/07 10:53:08;;;;;;;1.20;1.10;;;31.20;23.50;;;;;;4913992;29;20479;-71
2022/03/07 10:55:34;;;;;;;1.73;1.47;;;31.60;23.40;;;;;;4914773;29;20434;-72
2022/03/07 10:58:10;;;;;;;1.10;1.00;;;32.10;23.30;;;;;;4915965;29;20506;-72
2022/03/07 11:00:50;;;;;;;1.40;1.30;;;32.60;23.30;;;;;;4916293;29;20426;-72
2022/03/07 11:03:22;;;;;;;2.50;1.33;;;33.00;22.80;;;;;;4915660;29;21020;-72
2022/03/07 11:05:49;;;;;;;1.40;1.30;;;33.40;22.80;;;;;;4916385;29;20463;-72
2022/03/07 11:08:15;;;;;;;1.53;1.43;;;33.20;22.50;;;;;;4915777;29;20443;-72
2022/03/07 11:10:46;;;;;;;1.33;1.23;;;33.00;22.40;;;;;;4915726;29;20491;-72
2022/03/07 11:13:16;;;;;;;1.50;1.37;;;33.40;22.60;;;;;;4915379;29;20502;-72
2022/03/07 11:15:43;;;;;;;2.87;1.80;;;33.90;22.60;;;;;;4917281;29;20466;-72
2022/03/07 11:18:11;;;;;;;1.13;1.03;;;34.10;22.00;;;;;;4917871;29;20412;-73
2022/03/07 11:20:40;;;;;;;1.50;1.40;;;34.40;22.40;;;;;;4917582;29;20791;-72
2022/03/07 11:23:06;;;;;;;1.27;1.10;;;34.60;22.00;;;;;;4917654;29;20929;-72
2022/03/07 11:25:31;;;;;;;1.50;1.10;;;35.10;22.20;;;;;;4919882;29;20433;-72
2022/03/07 11:27:57;;;;;;;1.70;1.60;;;35.40;22.00;;;;;;4921420;29;20594;-72
2022/03/07 11:30:24;;;;;;;1.17;1.07;;;35.70;21.80;;;;;;4921237;29;20525;-72
2022/03/07 11:32:51;;;;;;;1.63;1.40;;;35.90;21.70;;;;;;4921632;29;20202;-72
2022/03/07 11:35:17;;;;;;;1.20;1.00;;;36.00;21.40;;;;;;4920965;29;20423;-72
2022/03/07 11:37:43;;;;;;;1.57;1.27;;;36.10;21.50;;;;;;4920887;29;20424;-72
2022/03/07 11:40:21;;;;;;;1.63;1.53;;;36.50;21.50;;;;;;4920292;29;20179;-72
2022/03/07 11:42:47;;;;;;;1.47;1.37;;;36.80;21.30;;;;;;4921126;29;20517;-72
2022/03/07 11:45:18;;;;;;;1.20;1.10;;;37.10;21.10;;;;;;4921318;29;20407;-72
2022/03/07 11:47:45;;;;;;;1.50;1.13;;;37.30;21.00;;;;;;4921474;29;20403;-72
2022/03/07 11:50:12;;;;;;;1.20;1.10;;;37.10;20.80;;;;;;4921436;29;20427;-72
2022/03/07 11:52:37;;;;;;;1.30;0.93;;;37.40;21.40;;;;;;4920981;29;20510;-72
2022/03/07 11:55:12;;;;;;;1.70;1.60;;;37.50;21.10;;;;;;4920430;29;20985;-73
2022/03/07 11:57:39;;;;;;;2.20;2.00;;;37.80;21.20;;;;;;4919217;29;20180;-72
2022/03/07 12:00:18;;;;;;;1.20;1.10;;;38.00;20.90;;;;;;4920340;29;20467;-72
2022/03/07 12:02:52;;;;;;;1.73;1.30;;;38.40;21.00;;;;;;4920564;29;20856;-73
2022/03/07 12:05:21;;;;;;;1.30;1.20;;;38.90;20.90;;;;;;4918411;29;20418;-72
2022/03/07 12:07:47;;;;;;;1.63;1.53;;;39.30;20.40;;;;;;4933371;29;20965;-72
2022/03/07 12:10:13;;;;;;;1.43;1.33;;;39.60;20.10;;;;;;4933394;29;20418;-72
2022/03/07 12:12:39;;;;;;;1.90;1.80;;;39.50;20.10;;;;;;4918810;29;20218;-72
2022/03/07 12:15:09;;;;;;;3.57;1.43;;;39.30;20.20;;;;;;4933405;29;20190;-72
2022/03/07 12:17:35;;;;;;;1.30;1.20;;;39.20;20.10;;;;;;4920539;29;20404;-72
2022/03/07 12:20:01;;;;;;;1.17;1.07;;;39.10;20.10;;;;;;4920552;29;20471;-72
2022/03/07 12:22:29;;;;;;;1.67;1.20;;;39.30;20.10;;;;;;4935342;28;20672;-72
2022/03/07 12:25:05;;;;;;;1.10;1.00;;;39.50;20.00;;;;;;4920411;29;20183;-72
2022/03/07 12:27:37;;;;;;;1.53;1.43;;;39.70;20.10;;;;;;4920055;29;20431;-72
2022/03/07 12:30:07;;;;;;;1.60;1.50;;;39.70;20.00;;;;;;4920353;29;20408;-72
2022/03/07 12:32:35;;;;;;;1.30;1.07;;;39.70;20.00;;;;;;4919140;29;20501;-72
2022/03/07 12:35:00;;;;;;;1.07;0.97;;;39.90;19.90;;;;;;4917866;29;20793;-72
2022/03/07 12:37:28;;;;;;;1.57;1.37;;;40.10;20.00;;;;;;4918166;29;20470;-72
2022/03/07 12:39:55;;;;;;;1.20;1.10;;;40.30;20.00;;;;;;4899459;29;20181;-72
2022/03/07 12:42:26;;;;;;;2.60;1.17;;;40.70;20.10;;;;;;4899501;29;20447;-72
2022/03/07 12:44:53;;;;;;;1.60;1.10;;;41.00;19.70;;;;;;4898985;29;20905;-72
2022/03/07 12:47:26;;;;;;;1.77;1.67;;;41.00;19.50;;;;;;4899345;29;20468;-72